Time,TemperatureF,DewpointF,PressureIn,WindDirection,WindDirectionDegrees,WindSpeedMPH,WindSpeedGustMPH,Humidity,HourlyPrecipIn,Conditions,Clouds,dailyrainin,SoftwareType,DateUTC
2013-12-19 00:00:00,23.5,17.7,29.96,SSE,167,0.0,0.0,78,0.00,,OVC040,0.00,VWS V14.01,2013-12-19 05:00:00,
2013-12-19 00:01:00,23.5,17.7,29.96,SSE,167,0.0,0.0,78,0.00,,OVC040,0.00,VWS V14.01,2013-12-19 05:01:00,
2013-12-19 00:06:00,23.5,17.7,29.96,SSE,167,0.0,0.0,78,0.00,,OVC040,0.00,VWS V14.01,2013-12-19 05:06:00,
2013-12-19 00:11:00,23.4,17.5,29.96,SSE,167,0.0,0.0,78,0.00,,OVC040,0.00,VWS V14.01,2013-12-19 05:11:00,
2013-12-19 00:16:00,23.4,17.5,29.96,SSE,167,0.0,0.0,78,0.00,,OVC040,0.00,VWS V14.01,2013-12-19 05:16:00,
2013-12-19 00:21:00,23.4,17.5,29.96,SSE,167,0.0,0.0,78,0.00,,OVC040,0.00,VWS V14.01,2013-12-19 05:21:00,
2013-12-19 00:26:00,23.2,17.0,29.96,SSE,167,0.0,0.0,77,0.00,,OVC040,0.00,VWS V14.01,2013-12-19 05:26:00,
2013-12-19 00:32:00,23.2,17.0,29.96,SSE,167,0.0,0.0,77,0.00,,OVC040,0.00,VWS V14.01,2013-12-19 05:32:00,
2013-12-19 00:37:00,23.0,17.2,29.96,SSE,167,0.0,0.0,78,0.00,,OVC040,0.00,VWS V14.01,2013-12-19 05:37:00,
2013-12-19 00:42:00,23.0,17.2,29.96,SSE,167,0.0,0.0,78,0.00,,OVC021,0.00,VWS V14.01,2013-12-19 05:42:00,
2013-12-19 00:47:00,23.0,17.2,29.96,SSE,167,0.0,0.0,78,0.00,,OVC021,0.00,VWS V14.01,2013-12-19 05:47:00,
2013-12-19 00:52:00,23.0,17.2,29.96,SSE,167,0.0,0.0,78,0.00,,OVC030,0.00,VWS V14.01,2013-12-19 05:52:00,
2013-12-19 00:57:00,23.0,17.2,29.96,SSE,167,0.0,0.0,78,0.00,,OVC030,0.00,VWS V14.01,2013-12-19 05:57:00,
2013-12-19 01:02:00,23.0,17.2,29.96,SSE,167,0.0,0.0,78,0.00,,OVC030,0.00,VWS V14.01,2013-12-19 06:02:00,
2013-12-19 01:07:00,23.0,17.2,29.96,SSE,167,0.0,0.0,78,0.00,,OVC030,0.00,VWS V14.01,2013-12-19 06:07:00,
2013-12-19 01:12:00,23.0,16.9,29.96,SSE,167,0.0,0.0,77,0.00,,OVC030,0.00,VWS V14.01,2013-12-19 06:12:00,
2013-12-19 01:17:00,23.0,16.9,29.93,SSE,167,0.0,0.0,77,0.00,,OVC030,0.00,VWS V14.01,2013-12-19 06:17:00,
2013-12-19 01:22:00,23.0,16.9,29.93,SSE,167,0.0,0.0,77,0.00,,OVC030,0.00,VWS V14.01,2013-12-19 06:22:00,
2013-12-19 01:27:00,22.8,16.7,29.96,SSE,167,0.0,0.0,77,0.00,,OVC030,0.00,VWS V14.01,2013-12-19 06:27:00,
2013-12-19 01:32:00,22.8,16.7,29.96,SSE,167,0.0,0.0,77,0.00,,OVC030,0.00,VWS V14.01,2013-12-19 06:32:00,
2013-12-19 01:37:00,22.8,16.7,29.96,SSE,167,0.0,0.0,77,0.00,,OVC030,0.00,VWS V14.01,2013-12-19 06:37:00,
2013-12-19 01:42:00,22.8,16.4,29.96,SSE,167,0.0,0.0,76,0.00,,OVC028,0.00,VWS V14.01,2013-12-19 06:42:00,
2013-12-19 01:47:00,22.6,16.2,29.96,SSE,167,0.0,0.0,76,0.00,,OVC028,0.00,VWS V14.01,2013-12-19 06:47:00,
2013-12-19 01:52:00,22.5,16.0,29.96,SSE,167,0.0,0.0,76,0.00,,,0.00,VWS V14.01,2013-12-19 06:52:00,
2013-12-19 01:57:00,22.5,16.0,29.96,SSE,167,0.0,0.0,76,0.00,,,0.00,VWS V14.01,2013-12-19 06:57:00,
2013-12-19 02:02:00,22.5,16.0,29.96,South,171,0.0,0.0,76,0.00,,,0.00,VWS V14.01,2013-12-19 07:02:00,
2013-12-19 02:07:00,22.5,16.0,29.96,South,171,0.0,0.0,76,0.00,,,0.00,VWS V14.01,2013-12-19 07:07:00,
2013-12-19 02:12:00,22.1,15.7,29.96,South,171,0.0,0.0,76,0.00,,,0.00,VWS V14.01,2013-12-19 07:12:00,
2013-12-19 02:17:00,22.1,15.7,29.96,South,171,0.0,0.0,76,0.00,,,0.00,VWS V14.01,2013-12-19 07:17:00,
2013-12-19 02:22:00,22.1,15.7,29.96,South,171,0.0,0.0,76,0.00,,,0.00,VWS V14.01,2013-12-19 07:22:00,
2013-12-19 02:27:00,21.9,15.5,29.96,South,171,0.0,0.0,76,0.00,,,0.00,VWS V14.01,2013-12-19 07:27:00,
2013-12-19 02:32:00,21.9,15.5,29.96,South,171,0.0,0.0,76,0.00,,,0.00,VWS V14.01,2013-12-19 07:32:00,
2013-12-19 02:37:00,21.9,15.8,29.96,South,171,0.0,0.0,77,0.00,,,0.00,VWS V14.01,2013-12-19 07:37:00,
2013-12-19 02:42:00,21.9,15.8,29.96,South,171,0.0,0.0,77,0.00,,,0.00,VWS V14.01,2013-12-19 07:42:00,
2013-12-19 02:47:00,21.9,15.8,29.96,South,171,0.0,0.0,77,0.00,,,0.00,VWS V14.01,2013-12-19 07:47:00,
2013-12-19 02:52:00,21.9,15.8,29.96,South,171,0.0,0.0,77,0.00,,,0.00,VWS V14.01,2013-12-19 07:52:00,
2013-12-19 02:57:00,21.7,15.6,29.96,South,171,0.0,0.0,77,0.00,,,0.00,VWS V14.01,2013-12-19 07:57:00,
2013-12-19 03:02:00,21.6,15.5,29.96,South,171,0.0,0.0,77,0.00,,,0.00,VWS V14.01,2013-12-19 08:02:00,
2013-12-19 03:08:00,21.6,15.5,29.96,South,171,0.0,0.0,77,0.00,,,0.00,VWS V14.01,2013-12-19 08:08:00,
2013-12-19 03:13:00,21.4,15.3,29.96,South,171,0.0,0.0,77,0.00,,,0.00,VWS V14.01,2013-12-19 08:13:00,
2013-12-19 03:18:00,21.6,15.5,29.96,South,171,0.0,0.0,77,0.00,,,0.00,VWS V14.01,2013-12-19 08:18:00,
2013-12-19 03:23:00,21.6,15.5,29.96,South,171,0.0,0.0,77,0.00,,,0.00,VWS V14.01,2013-12-19 08:23:00,
2013-12-19 03:28:00,21.7,15.6,29.96,South,171,0.0,0.0,77,0.00,,,0.00,VWS V14.01,2013-12-19 08:28:00,
2013-12-19 03:33:00,21.7,15.6,29.96,South,171,0.0,0.0,77,0.00,,,0.00,VWS V14.01,2013-12-19 08:33:00,
2013-12-19 03:38:00,21.9,16.1,29.96,South,171,0.0,0.0,78,0.00,,,0.00,VWS V14.01,2013-12-19 08:38:00,
2013-12-19 03:43:00,21.9,16.1,29.96,South,171,0.0,0.0,78,0.00,,,0.00,VWS V14.01,2013-12-19 08:43:00,
2013-12-19 03:48:00,22.1,16.3,29.96,South,173,0.0,0.0,78,0.00,,,0.00,VWS V14.01,2013-12-19 08:48:00,
2013-12-19 03:53:00,22.3,16.5,29.96,SSE,167,0.0,0.0,78,0.00,,,0.00,VWS V14.01,2013-12-19 08:53:00,
2013-12-19 03:58:00,22.3,16.5,29.93,SSE,167,0.0,0.0,78,0.00,,,0.00,VWS V14.01,2013-12-19 08:58:00,
2013-12-19 04:03:00,22.3,16.5,29.93,SSE,150,0.0,0.0,78,0.00,,,0.00,VWS V14.01,2013-12-19 09:03:00,
2013-12-19 04:08:00,22.5,16.9,29.93,SSE,150,0.0,0.0,79,0.00,,,0.00,VWS V14.01,2013-12-19 09:08:00,
2013-12-19 04:13:00,22.5,16.9,29.93,SSE,162,0.0,0.0,79,0.00,,,0.00,VWS V14.01,2013-12-19 09:13:00,
2013-12-19 04:18:00,22.6,17.1,29.93,SSE,162,0.0,0.0,79,0.00,,,0.00,VWS V14.01,2013-12-19 09:18:00,
2013-12-19 04:23:00,22.6,17.1,29.93,SSE,162,0.0,0.0,79,0.00,,,0.00,VWS V14.01,2013-12-19 09:23:00,
2013-12-19 04:28:00,22.6,17.1,29.93,SSE,162,0.0,0.0,79,0.00,,,0.00,VWS V14.01,2013-12-19 09:28:00,
2013-12-19 04:33:00,22.8,17.3,29.93,SSE,162,0.0,0.0,79,0.00,,,0.00,VWS V14.01,2013-12-19 09:33:00,
2013-12-19 04:38:00,22.8,17.3,29.93,SSE,162,0.0,0.0,79,0.00,,,0.00,VWS V14.01,2013-12-19 09:38:00,
2013-12-19 04:43:00,22.8,17.3,29.93,SSE,162,0.0,0.0,79,0.00,,,0.00,VWS V14.01,2013-12-19 09:43:00,
2013-12-19 04:48:00,22.8,17.3,29.93,SSE,162,0.0,0.0,79,0.00,,,0.00,VWS V14.01,2013-12-19 09:48:00,
2013-12-19 04:53:00,22.8,17.3,29.93,SSE,162,0.0,0.0,79,0.00,,,0.00,VWS V14.01,2013-12-19 09:53:00,
2013-12-19 04:58:00,22.8,17.6,29.93,South,180,0.0,0.0,80,0.00,,,0.00,VWS V14.01,2013-12-19 09:58:00,
2013-12-19 05:03:00,23.2,17.6,29.90,SE,144,0.0,0.0,79,0.00,,,0.00,VWS V14.01,2013-12-19 10:03:00,
2013-12-19 05:08:00,23.2,17.9,29.90,ESE,109,0.0,0.0,80,0.00,,,0.00,VWS V14.01,2013-12-19 10:08:00,
2013-12-19 05:13:00,23.4,18.1,29.90,ESE,109,0.0,0.0,80,0.00,,,0.00,VWS V14.01,2013-12-19 10:13:00,
2013-12-19 05:18:00,23.4,18.1,29.90,ESE,109,0.0,0.0,80,0.00,,,0.00,VWS V14.01,2013-12-19 10:18:00,
2013-12-19 05:23:00,23.5,18.3,29.90,ESE,109,0.0,0.0,80,0.00,,,0.00,VWS V14.01,2013-12-19 10:23:00,
2013-12-19 05:28:00,23.5,18.3,29.90,ESE,109,0.0,0.0,80,0.00,,,0.00,VWS V14.01,2013-12-19 10:28:00,
2013-12-19 05:33:00,23.7,18.5,29.90,ESE,109,0.0,0.0,80,0.00,,,0.00,VWS V14.01,2013-12-19 10:33:00,
2013-12-19 05:38:00,23.7,18.5,29.90,ESE,109,0.0,0.0,80,0.00,,,0.00,VWS V14.01,2013-12-19 10:38:00,
2013-12-19 05:43:00,23.9,18.6,29.90,ESE,109,0.0,0.0,80,0.00,,,0.00,VWS V14.01,2013-12-19 10:43:00,
2013-12-19 05:49:00,23.9,18.6,29.90,ESE,109,0.0,0.0,80,0.00,,,0.00,VWS V14.01,2013-12-19 10:49:00,
2013-12-19 05:54:00,23.9,18.6,29.90,ESE,109,0.0,0.0,80,0.00,,OVC065,0.00,VWS V14.01,2013-12-19 10:54:00,
2013-12-19 05:59:00,23.9,18.6,29.90,SSE,167,0.0,0.0,80,0.00,,OVC065,0.00,VWS V14.01,2013-12-19 10:59:00,
2013-12-19 06:04:00,23.9,18.6,29.90,SSE,167,0.0,0.0,80,0.00,,OVC065,0.00,VWS V14.01,2013-12-19 11:04:00,
2013-12-19 06:09:00,23.9,18.6,29.90,South,177,0.0,0.0,80,0.00,,OVC065,0.00,VWS V14.01,2013-12-19 11:09:00,
2013-12-19 06:14:00,23.9,18.6,29.90,South,177,0.0,0.0,80,0.00,,OVC065,0.00,VWS V14.01,2013-12-19 11:14:00,
2013-12-19 06:19:00,23.9,18.6,29.90,South,177,0.0,0.0,80,0.00,,OVC065,0.00,VWS V14.01,2013-12-19 11:19:00,
2013-12-19 06:24:00,23.9,18.6,29.90,South,172,0.0,0.0,80,0.00,,OVC065,0.00,VWS V14.01,2013-12-19 11:24:00,
2013-12-19 06:29:00,23.9,18.6,29.90,South,172,0.0,0.0,80,0.00,,OVC065,0.00,VWS V14.01,2013-12-19 11:29:00,
2013-12-19 06:34:00,23.9,18.6,29.90,South,172,0.0,0.0,80,0.00,,OVC065,0.00,VWS V14.01,2013-12-19 11:34:00,
2013-12-19 06:39:00,23.9,18.6,29.90,South,172,0.0,0.0,80,0.00,,OVC065,0.00,VWS V14.01,2013-12-19 11:39:00,
2013-12-19 06:44:00,23.9,18.6,29.90,SSE,160,0.0,0.0,80,0.00,,OVC065,0.00,VWS V14.01,2013-12-19 11:44:00,
2013-12-19 06:49:00,23.9,18.6,29.90,SSE,160,0.0,0.0,80,0.00,,OVC065,0.00,VWS V14.01,2013-12-19 11:49:00,
2013-12-19 06:54:00,23.9,18.6,29.90,SE,141,3.6,3.6,80,0.00,,OVC065,0.00,VWS V14.01,2013-12-19 11:54:00,
2013-12-19 06:59:00,23.9,18.6,29.90,SSE,165,4.0,4.0,80,0.00,,OVC065,0.00,VWS V14.01,2013-12-19 11:59:00,
2013-12-19 07:04:00,23.9,18.6,29.90,SSE,159,5.4,5.4,80,0.00,,OVC065,0.00,VWS V14.01,2013-12-19 12:04:00,
2013-12-19 07:09:00,24.1,18.8,29.90,SE,127,5.4,5.4,80,0.00,,OVC065,0.00,VWS V14.01,2013-12-19 12:09:00,
2013-12-19 07:14:00,24.1,18.8,29.90,SE,127,5.4,5.4,80,0.00,,OVC065,0.00,VWS V14.01,2013-12-19 12:14:00,
2013-12-19 07:19:00,24.1,18.8,29.90,SSE,155,3.6,6.3,80,0.00,,OVC065,0.00,VWS V14.01,2013-12-19 12:19:00,
2013-12-19 07:24:00,24.1,18.8,29.90,SSE,151,2.7,3.6,80,0.00,,OVC065,0.00,VWS V14.01,2013-12-19 12:24:00,
2013-12-19 07:29:00,24.1,18.8,29.90,SSE,157,3.6,4.0,80,0.00,,OVC065,0.00,VWS V14.01,2013-12-19 12:29:00,
2013-12-19 07:34:00,24.1,18.8,29.90,SSE,159,3.6,3.6,80,0.00,,OVC065,0.00,VWS V14.01,2013-12-19 12:34:00,
2013-12-19 07:39:00,24.1,18.8,29.90,SSE,168,4.0,4.0,80,0.00,,OVC065,0.00,VWS V14.01,2013-12-19 12:39:00,
2013-12-19 07:44:00,24.1,18.8,29.90,SSE,150,4.0,4.9,80,0.00,,OVC065,0.00,VWS V14.01,2013-12-19 12:44:00,
2013-12-19 07:49:00,24.1,18.8,29.90,SSE,150,4.0,4.9,80,0.00,,OVC065,0.00,VWS V14.01,2013-12-19 12:49:00,
2013-12-19 07:54:00,24.1,18.8,29.90,SSE,168,4.0,4.0,80,0.00,,OVC060,0.00,VWS V14.01,2013-12-19 12:54:00,
2013-12-19 07:59:00,24.1,18.8,29.90,South,180,3.1,4.0,80,0.00,,OVC060,0.00,VWS V14.01,2013-12-19 12:59:00,
2013-12-19 08:04:00,24.1,18.8,29.90,South,181,3.6,4.0,80,0.00,,OVC060,0.00,VWS V14.01,2013-12-19 13:04:00,
2013-12-19 08:09:00,24.3,18.4,29.90,SSE,160,0.0,4.0,78,0.00,,OVC060,0.00,VWS V14.01,2013-12-19 13:09:00,
2013-12-19 08:14:00,24.3,18.4,29.90,SSE,151,0.0,0.0,78,0.00,,OVC060,0.00,VWS V14.01,2013-12-19 13:14:00,
2013-12-19 08:19:00,24.4,18.6,29.90,SSE,165,0.0,0.0,78,0.00,,OVC060,0.00,VWS V14.01,2013-12-19 13:19:00,
2013-12-19 08:25:00,24.4,18.6,29.90,SSE,160,0.0,0.0,78,0.00,,OVC060,0.00,VWS V14.01,2013-12-19 13:25:00,
2013-12-19 08:30:00,24.4,18.6,29.90,SSE,160,0.0,0.0,78,0.00,,OVC060,0.00,VWS V14.01,2013-12-19 13:30:00,
2013-12-19 08:35:00,24.4,18.6,29.90,SSE,165,2.7,2.7,78,0.00,,OVC060,0.00,VWS V14.01,2013-12-19 13:35:00,
2013-12-19 08:40:00,24.8,18.9,29.90,SSE,162,4.9,4.9,78,0.00,,OVC060,0.00,VWS V14.01,2013-12-19 13:40:00,
2013-12-19 08:45:00,25.0,18.8,29.90,South,172,3.6,4.9,77,0.00,,OVC050,0.00,VWS V14.01,2013-12-19 13:45:00,
2013-12-19 08:50:00,25.0,18.8,29.90,SSE,147,3.6,4.9,77,0.00,,OVC050,0.00,VWS V14.01,2013-12-19 13:50:00,
2013-12-19 08:55:00,25.0,18.8,29.90,South,187,2.7,5.8,77,0.00,,OVC050,0.00,VWS V14.01,2013-12-19 13:55:00,
2013-12-19 09:00:00,25.7,19.5,29.90,South,171,0.0,5.8,77,0.00,,OVC050,0.00,VWS V14.01,2013-12-19 14:00:00,
2013-12-19 09:05:00,25.7,19.5,29.90,South,176,3.6,3.6,77,0.00,,OVC050,0.00,VWS V14.01,2013-12-19 14:05:00,
2013-12-19 09:10:00,25.9,19.7,29.90,SSE,153,2.7,3.6,77,0.00,,OVC050,0.00,VWS V14.01,2013-12-19 14:10:00,
2013-12-19 09:15:00,25.9,19.7,29.90,SSE,168,3.1,3.1,77,0.00,,OVC050,0.00,VWS V14.01,2013-12-19 14:15:00,
2013-12-19 09:20:00,25.9,19.7,29.90,SSE,168,4.0,4.0,77,0.00,,OVC050,0.00,VWS V14.01,2013-12-19 14:20:00,
2013-12-19 09:25:00,26.2,19.7,29.90,SSE,159,3.6,4.0,76,0.00,,OVC050,0.00,VWS V14.01,2013-12-19 14:25:00,
2013-12-19 09:30:00,26.4,19.9,29.90,SSE,161,8.7,8.7,76,0.00,,OVC050,0.00,VWS V14.01,2013-12-19 14:30:00,
2013-12-19 09:35:00,26.4,19.9,29.90,South,170,4.9,8.7,76,0.00,,OVC050,0.00,VWS V14.01,2013-12-19 14:35:00,
2013-12-19 09:40:00,26.4,19.9,29.90,SSE,157,0.0,0.0,76,0.00,,OVC046,0.00,VWS V14.01,2013-12-19 14:40:00,
2013-12-19 09:45:00,26.8,19.9,29.90,SSE,160,0.0,3.6,75,0.00,,OVC046,0.00,VWS V14.01,2013-12-19 14:45:00,
2013-12-19 09:50:00,26.8,19.9,29.90,South,182,2.7,2.7,75,0.00,,OVC046,0.00,VWS V14.01,2013-12-19 14:50:00,
2013-12-19 09:55:00,27.0,19.8,29.90,SSE,156,2.2,5.4,74,0.00,,OVC046,0.00,VWS V14.01,2013-12-19 14:55:00,
2013-12-19 10:00:00,27.1,20.0,29.90,South,175,3.1,3.1,74,0.00,,OVC046,0.00,VWS V14.01,2013-12-19 15:00:00,
2013-12-19 10:05:00,27.1,20.0,29.90,South,174,3.1,4.0,74,0.00,,OVC046,0.00,VWS V14.01,2013-12-19 15:05:00,
2013-12-19 10:10:00,27.7,20.2,29.90,South,181,3.6,3.6,73,0.00,,OVC046,0.00,VWS V14.01,2013-12-19 15:10:00,
2013-12-19 10:15:00,27.9,20.0,29.90,South,172,3.6,5.8,72,0.00,,OVC046,0.00,VWS V14.01,2013-12-19 15:15:00,
2013-12-19 10:20:00,27.9,20.0,29.90,SSE,161,4.9,4.9,72,0.00,,OVC046,0.00,VWS V14.01,2013-12-19 15:20:00,
2013-12-19 10:25:00,27.9,20.0,29.90,SSE,166,3.6,7.6,72,0.00,,OVC046,0.00,VWS V14.01,2013-12-19 15:25:00,
2013-12-19 10:30:00,27.9,20.0,29.90,SSE,153,5.4,5.4,72,0.00,,OVC046,0.00,VWS V14.01,2013-12-19 15:30:00,
2013-12-19 10:35:00,28.2,19.7,29.90,South,170,4.0,5.8,70,0.00,,OVC046,0.00,VWS V14.01,2013-12-19 15:35:00,
2013-12-19 10:40:00,28.4,19.5,29.90,SSE,162,5.4,5.4,69,0.00,,OVC042,0.00,VWS V14.01,2013-12-19 15:40:00,
2013-12-19 10:45:00,28.4,19.5,29.90,South,173,3.6,6.3,69,0.00,,OVC042,0.00,VWS V14.01,2013-12-19 15:45:00,
2013-12-19 10:50:00,28.4,19.5,29.90,SSE,157,5.8,5.8,69,0.00,,OVC042,0.00,VWS V14.01,2013-12-19 15:50:00,
2013-12-19 10:55:00,28.4,19.5,29.90,South,171,7.2,7.2,69,0.00,,OVC042,0.00,VWS V14.01,2013-12-19 15:55:00,
2013-12-19 11:01:00,28.8,18.5,29.90,South,172,0.0,0.0,65,0.00,,OVC042,0.00,VWS V14.01,2013-12-19 16:01:00,
2013-12-19 11:06:00,28.9,18.3,29.90,South,170,2.7,2.7,64,0.00,,OVC042,0.00,VWS V14.01,2013-12-19 16:06:00,
2013-12-19 11:11:00,28.9,18.3,29.90,South,176,5.4,5.8,64,0.00,,OVC042,0.00,VWS V14.01,2013-12-19 16:11:00,
2013-12-19 11:16:00,28.9,18.3,29.90,SE,135,3.6,5.8,64,0.00,,OVC042,0.00,VWS V14.01,2013-12-19 16:16:00,
2013-12-19 11:21:00,29.3,17.5,29.90,SSE,166,4.0,4.0,61,0.00,,OVC042,0.00,VWS V14.01,2013-12-19 16:21:00,
2013-12-19 11:26:00,29.5,17.7,29.90,SSE,163,6.3,8.1,61,0.00,,OVC042,0.00,VWS V14.01,2013-12-19 16:26:00,
2013-12-19 11:31:00,29.5,17.7,29.90,South,169,6.3,6.3,61,0.00,,OVC042,0.00,VWS V14.01,2013-12-19 16:31:00,
2013-12-19 11:36:00,29.5,17.7,29.90,SSE,152,4.0,6.3,61,0.00,,OVC042,0.00,VWS V14.01,2013-12-19 16:36:00,
2013-12-19 11:41:00,29.5,17.7,29.90,SSE,157,4.0,4.0,61,0.00,,OVC038,0.00,VWS V14.01,2013-12-19 16:41:00,
2013-12-19 11:46:00,30.0,17.8,29.90,SSE,150,5.4,6.3,60,0.00,,OVC038,0.00,VWS V14.01,2013-12-19 16:46:00,
2013-12-19 11:51:00,30.2,18.0,29.90,South,175,5.8,5.8,60,0.00,,OVC038,0.00,VWS V14.01,2013-12-19 16:51:00,
2013-12-19 11:56:00,30.2,18.0,29.90,SSE,160,6.3,6.3,60,0.00,,OVC038,0.00,VWS V14.01,2013-12-19 16:56:00,
2013-12-19 12:01:00,30.2,18.0,29.90,South,183,5.4,5.4,60,0.00,,OVC038,0.00,VWS V14.01,2013-12-19 17:01:00,
2013-12-19 12:06:00,30.2,18.0,29.90,South,172,4.0,5.4,60,0.00,,OVC038,0.00,VWS V14.01,2013-12-19 17:06:00,
2013-12-19 12:11:00,30.7,18.1,29.90,South,184,5.4,5.4,59,0.00,,OVC038,0.00,VWS V14.01,2013-12-19 17:11:00,
2013-12-19 12:16:00,30.7,18.1,29.90,South,170,4.0,6.3,59,0.00,,OVC038,0.00,VWS V14.01,2013-12-19 17:16:00,
2013-12-19 12:21:00,30.9,18.3,29.90,South,179,7.6,7.6,59,0.00,,OVC038,0.00,VWS V14.01,2013-12-19 17:21:00,
2013-12-19 12:26:00,30.9,18.3,29.90,SSE,153,4.9,7.6,59,0.00,,OVC038,0.00,VWS V14.01,2013-12-19 17:26:00,
2013-12-19 12:31:00,30.9,18.3,29.90,SE,145,5.4,5.4,59,0.00,,OVC038,0.00,VWS V14.01,2013-12-19 17:31:00,
2013-12-19 12:36:00,31.3,18.6,29.90,SSE,155,5.4,5.8,59,0.00,,OVC038,0.00,VWS V14.01,2013-12-19 17:36:00,
2013-12-19 12:41:00,31.3,18.6,29.90,SSE,154,4.0,4.0,59,0.00,,OVC034,0.00,VWS V14.01,2013-12-19 17:41:00,
2013-12-19 12:46:00,31.3,18.6,29.90,South,173,3.1,5.8,59,0.00,,OVC034,0.00,VWS V14.01,2013-12-19 17:46:00,
2013-12-19 12:51:00,31.3,18.6,29.90,SW,223,3.1,3.1,59,0.00,,OVC028,0.00,VWS V14.01,2013-12-19 17:51:00,
2013-12-19 12:57:00,31.3,18.6,29.90,South,176,8.3,8.3,59,0.00,,OVC028,0.00,VWS V14.01,2013-12-19 17:57:00,
2013-12-19 13:02:00,32.2,19.1,29.90,South,172,9.6,9.6,58,0.00,,OVC028,0.00,VWS V14.01,2013-12-19 18:02:00,
2013-12-19 13:05:00,32.2,19.1,29.90,South,177,5.8,9.6,58,0.00,,OVC028,0.00,VWS V14.01,2013-12-19 18:05:00,
2013-12-19 13:10:00,32.2,18.7,29.90,SSE,165,2.2,4.0,57,0.00,,OVC028,0.00,VWS V14.01,2013-12-19 18:10:00,
2013-12-19 13:15:00,32.2,18.7,29.90,SSE,162,6.3,6.3,57,0.00,,OVC028,0.00,VWS V14.01,2013-12-19 18:15:00,
2013-12-19 13:20:00,32.2,18.7,29.90,South,191,5.4,5.4,57,0.00,,OVC028,0.00,VWS V14.01,2013-12-19 18:20:00,
2013-12-19 13:25:00,32.5,18.6,29.90,SSE,164,5.8,5.8,56,0.00,,OVC028,0.00,VWS V14.01,2013-12-19 18:25:00,
2013-12-19 13:30:00,32.5,18.6,29.90,South,171,6.3,6.3,56,0.00,,OVC028,0.00,VWS V14.01,2013-12-19 18:30:00,
2013-12-19 13:35:00,32.5,18.6,29.90,SSE,150,0.0,6.3,56,0.00,,OVC028,0.00,VWS V14.01,2013-12-19 18:35:00,
2013-12-19 13:40:00,32.5,18.6,29.90,SE,145,2.2,2.2,56,0.00,,OVC025,0.00,VWS V14.01,2013-12-19 18:40:00,
2013-12-19 13:45:00,32.5,18.6,29.90,South,184,3.6,3.6,56,0.00,,OVC025,0.00,VWS V14.01,2013-12-19 18:45:00,
2013-12-19 13:50:00,32.5,18.6,29.90,SSE,150,5.8,6.7,56,0.00,,OVC025,0.00,VWS V14.01,2013-12-19 18:50:00,
2013-12-19 13:55:00,32.5,18.6,29.90,South,175,5.4,7.6,56,0.00,,OVC025,0.00,VWS V14.01,2013-12-19 18:55:00,
2013-12-19 14:00:00,32.4,18.4,29.90,SSE,161,2.7,2.7,56,0.00,,OVC025,0.00,VWS V14.01,2013-12-19 19:00:00,
2013-12-19 14:05:00,32.4,18.4,29.90,SSE,162,2.7,5.8,56,0.00,,OVC025,0.00,VWS V14.01,2013-12-19 19:05:00,
2013-12-19 14:11:00,32.4,18.4,29.90,South,179,7.6,7.6,56,0.00,,OVC025,0.00,VWS V14.01,2013-12-19 19:11:00,
2013-12-19 14:16:00,32.4,18.4,29.90,South,176,2.7,7.6,56,0.00,,OVC025,0.00,VWS V14.01,2013-12-19 19:16:00,
2013-12-19 14:21:00,32.4,18.4,29.90,SSE,167,6.3,6.3,56,0.00,,OVC025,0.00,VWS V14.01,2013-12-19 19:21:00,
2013-12-19 14:26:00,32.4,18.4,29.90,South,182,4.9,7.6,56,0.00,,OVC025,0.00,VWS V14.01,2013-12-19 19:26:00,
2013-12-19 14:31:00,32.4,18.4,29.93,South,171,4.5,4.5,56,0.00,,OVC025,0.00,VWS V14.01,2013-12-19 19:31:00,
2013-12-19 14:36:00,32.4,18.8,29.93,SE,143,6.3,6.3,57,0.00,,OVC025,0.00,VWS V14.01,2013-12-19 19:36:00,
2013-12-19 14:41:00,32.4,18.8,29.93,SSE,167,3.1,5.4,57,0.00,,OVC023,0.00,VWS V14.01,2013-12-19 19:41:00,
2013-12-19 14:46:00,32.2,18.7,29.93,South,177,5.8,5.8,57,0.00,,OVC023,0.00,VWS V14.01,2013-12-19 19:46:00,
2013-12-19 14:51:00,32.2,18.7,29.93,South,171,6.3,6.3,57,0.00,,OVC023,0.00,VWS V14.01,2013-12-19 19:51:00,
2013-12-19 14:56:00,32.2,19.1,29.93,South,179,3.1,8.1,58,0.00,,OVC023,0.00,VWS V14.01,2013-12-19 19:56:00,
2013-12-19 15:01:00,32.2,19.1,29.93,South,171,3.1,5.8,58,0.00,,OVC023,0.00,VWS V14.01,2013-12-19 20:01:00,
2013-12-19 15:06:00,32.2,19.1,29.93,SSE,165,5.8,5.8,58,0.00,,OVC023,0.00,VWS V14.01,2013-12-19 20:06:00,
2013-12-19 15:11:00,32.2,19.5,29.93,SSE,166,7.6,8.1,59,0.00,,OVC023,0.00,VWS V14.01,2013-12-19 20:11:00,
2013-12-19 15:16:00,32.2,19.5,29.93,SSW,196,7.2,8.1,59,0.00,,OVC023,0.00,VWS V14.01,2013-12-19 20:16:00,
2013-12-19 15:21:00,32.2,19.9,29.93,South,182,4.9,5.8,60,0.00,,OVC023,0.00,VWS V14.01,2013-12-19 20:21:00,
2013-12-19 15:26:00,32.2,19.9,29.96,SSW,207,0.0,5.8,60,0.00,,OVC023,0.00,VWS V14.01,2013-12-19 20:26:00,
2013-12-19 15:31:00,32.2,19.9,29.96,South,177,4.0,5.4,60,0.00,,OVC023,0.00,VWS V14.01,2013-12-19 20:31:00,
2013-12-19 15:36:00,32.2,20.3,29.96,South,170,4.0,5.4,61,0.00,,OVC023,0.00,VWS V14.01,2013-12-19 20:36:00,
2013-12-19 15:41:00,32.2,20.3,29.96,SW,232,0.0,3.1,61,0.00,,OVC019,0.00,VWS V14.01,2013-12-19 20:41:00,
2013-12-19 15:46:00,32.2,20.6,29.96,South,175,4.9,5.4,62,0.00,,OVC019,0.00,VWS V14.01,2013-12-19 20:46:00,
2013-12-19 15:51:00,32.2,20.6,29.96,SW,220,3.1,3.1,62,0.00,,OVC019,0.00,VWS V14.01,2013-12-19 20:51:00,
2013-12-19 15:56:00,32.2,20.6,29.96,South,175,5.4,5.4,62,0.00,,OVC019,0.00,VWS V14.01,2013-12-19 20:56:00,
2013-12-19 16:01:00,32.2,20.6,29.96,SSE,154,3.6,3.6,62,0.00,,OVC019,0.00,VWS V14.01,2013-12-19 21:01:00,
2013-12-19 16:06:00,32.2,21.4,29.96,SSE,159,0.0,5.4,64,0.00,,OVC019,0.00,VWS V14.01,2013-12-19 21:06:00,
2013-12-19 16:11:00,32.2,21.4,29.96,SSE,165,6.3,6.3,64,0.00,,OVC019,0.00,VWS V14.01,2013-12-19 21:11:00,
2013-12-19 16:16:00,32.2,21.4,29.96,SSE,154,0.0,6.3,64,0.00,,OVC019,0.00,VWS V14.01,2013-12-19 21:16:00,
2013-12-19 16:21:00,32.2,21.4,29.96,SSE,164,3.6,7.6,64,0.00,,OVC019,0.00,VWS V14.01,2013-12-19 21:21:00,
2013-12-19 16:26:00,32.2,21.4,29.96,SSW,193,4.0,7.6,64,0.00,,OVC019,0.00,VWS V14.01,2013-12-19 21:26:00,
2013-12-19 16:31:00,32.5,22.5,29.96,SSE,168,4.0,4.0,66,0.00,,OVC019,0.00,VWS V14.01,2013-12-19 21:31:00,
2013-12-19 16:36:00,32.5,22.5,29.96,South,182,2.7,4.0,66,0.00,,OVC019,0.00,VWS V14.01,2013-12-19 21:36:00,
2013-12-19 16:41:00,32.5,22.5,29.96,South,186,3.6,3.6,66,0.00,,OVC019,0.00,VWS V14.01,2013-12-19 21:41:00,
2013-12-19 16:46:00,32.5,22.5,29.96,SW,231,2.7,5.8,66,0.00,,OVC019,0.00,VWS V14.01,2013-12-19 21:46:00,
2013-12-19 16:51:00,32.5,22.5,29.96,SSE,162,3.1,3.1,66,0.00,,OVC013,0.00,VWS V14.01,2013-12-19 21:51:00,
2013-12-19 16:56:00,32.5,22.8,29.96,SSE,154,5.4,5.4,67,0.00,,OVC013,0.00,VWS V14.01,2013-12-19 21:56:00,
2013-12-19 17:02:00,32.5,23.2,29.96,SSE,166,5.4,5.4,68,0.00,,OVC013,0.00,VWS V14.01,2013-12-19 22:02:00,
2013-12-19 17:07:00,32.7,23.7,29.96,South,181,3.1,5.4,69,0.00,,OVC013,0.00,VWS V14.01,2013-12-19 22:07:00,
2013-12-19 17:12:00,32.7,23.7,29.96,South,181,3.1,4.0,69,0.00,,OVC013,0.00,VWS V14.01,2013-12-19 22:12:00,
2013-12-19 17:17:00,32.7,23.7,29.96,SSE,167,6.3,6.3,69,0.00,,OVC013,0.00,VWS V14.01,2013-12-19 22:17:00,
2013-12-19 17:22:00,32.7,23.7,29.96,SSW,194,2.7,5.4,69,0.00,,OVC013,0.00,VWS V14.01,2013-12-19 22:22:00,
2013-12-19 17:27:00,32.7,23.7,29.96,SE,146,4.0,5.4,69,0.00,,OVC013,0.00,VWS V14.01,2013-12-19 22:27:00,
2013-12-19 17:32:00,32.7,23.7,29.96,SW,226,5.4,5.4,69,0.00,,OVC013,0.00,VWS V14.01,2013-12-19 22:32:00,
2013-12-19 17:37:00,32.7,23.7,29.96,South,183,0.0,5.4,69,0.00,,OVC013,0.00,VWS V14.01,2013-12-19 22:37:00,
2013-12-19 17:42:00,32.7,24.0,29.96,SSW,198,3.6,3.6,70,0.00,,OVC011,0.00,VWS V14.01,2013-12-19 22:42:00,
2013-12-19 17:47:00,32.7,24.0,29.96,SSE,166,3.6,4.9,70,0.00,,OVC011,0.00,VWS V14.01,2013-12-19 22:47:00,
2013-12-19 17:52:00,32.7,24.0,29.96,SSW,210,3.6,3.6,70,0.00,,OVC011,0.00,VWS V14.01,2013-12-19 22:52:00,
2013-12-19 17:57:00,32.7,24.0,29.96,SW,231,0.0,3.6,70,0.00,,OVC011,0.00,VWS V14.01,2013-12-19 22:57:00,
2013-12-19 18:02:00,32.7,24.4,29.96,SW,229,0.0,0.0,71,0.00,,OVC011,0.00,VWS V14.01,2013-12-19 23:02:00,
2013-12-19 18:07:00,32.7,24.4,29.96,SW,227,2.7,2.7,71,0.00,,OVC011,0.00,VWS V14.01,2013-12-19 23:07:00,
2013-12-19 18:12:00,32.7,24.4,29.96,South,181,3.1,3.6,71,0.00,,OVC011,0.00,VWS V14.01,2013-12-19 23:12:00,
2013-12-19 18:17:00,32.7,24.4,29.96,SSE,159,2.7,3.6,71,0.00,,OVC011,0.00,VWS V14.01,2013-12-19 23:17:00,
2013-12-19 18:22:00,32.7,24.4,29.96,SSW,206,3.1,4.0,71,0.00,,OVC011,0.00,VWS V14.01,2013-12-19 23:22:00,
2013-12-19 18:27:00,32.7,24.7,29.96,SW,224,2.7,4.0,72,0.00,,OVC011,0.00,VWS V14.01,2013-12-19 23:27:00,
2013-12-19 18:32:00,32.7,24.7,29.96,SSE,149,3.6,3.6,72,0.00,,OVC011,0.00,VWS V14.01,2013-12-19 23:32:00,
2013-12-19 18:37:00,32.7,24.7,29.96,WSW,251,3.6,3.6,72,0.00,,OVC011,0.00,VWS V14.01,2013-12-19 23:37:00,
2013-12-19 18:42:00,32.7,24.7,29.96,SSW,198,0.0,0.0,72,0.00,,OVC011,0.00,VWS V14.01,2013-12-19 23:42:00,
2013-12-19 18:47:00,32.7,24.7,29.96,SSE,161,0.0,3.6,72,0.00,,OVC011,0.00,VWS V14.01,2013-12-19 23:47:00,
2013-12-19 18:52:00,32.7,24.7,29.96,South,171,0.0,0.0,72,0.00,,OVC017,0.00,VWS V14.01,2013-12-19 23:52:00,
2013-12-19 18:57:00,32.7,24.7,29.96,SSE,167,0.0,0.0,72,0.00,,OVC017,0.00,VWS V14.01,2013-12-19 23:57:00,
2013-12-19 19:02:00,32.7,24.7,29.96,SSE,166,0.0,0.0,72,0.00,,OVC017,0.00,VWS V14.01,2013-12-20 00:02:00,
2013-12-19 19:07:00,32.7,24.7,29.96,WNW,300,0.0,0.0,72,0.00,,OVC017,0.00,VWS V14.01,2013-12-20 00:07:00,
2013-12-19 19:12:00,32.7,24.7,29.96,WNW,300,0.0,0.0,72,0.00,,OVC017,0.00,VWS V14.01,2013-12-20 00:12:00,
2013-12-19 19:17:00,32.5,24.9,29.96,WNW,300,0.0,0.0,73,0.00,,OVC017,0.00,VWS V14.01,2013-12-20 00:17:00,
2013-12-19 19:22:00,32.5,24.9,29.96,WNW,300,0.0,0.0,73,0.00,,OVC017,0.00,VWS V14.01,2013-12-20 00:22:00,
2013-12-19 19:27:00,32.5,24.9,29.96,North,3,0.0,0.0,73,0.00,,OVC017,0.00,VWS V14.01,2013-12-20 00:27:00,
2013-12-19 19:32:00,32.5,24.9,30.01,North,3,0.0,0.0,73,0.00,,OVC017,0.00,VWS V14.01,2013-12-20 00:32:00,
2013-12-19 19:37:00,32.2,24.5,30.01,North,2,0.0,0.0,73,0.00,,OVC017,0.00,VWS V14.01,2013-12-20 00:37:00,
2013-12-19 19:42:00,32.2,24.5,30.01,North,4,0.0,0.0,73,0.00,,OVC017,0.00,VWS V14.01,2013-12-20 00:42:00,
2013-12-19 19:47:00,32.2,24.5,30.01,North,4,0.0,0.0,73,0.00,,OVC017,0.00,VWS V14.01,2013-12-20 00:47:00,
2013-12-19 19:52:00,32.2,24.5,30.01,North,4,0.0,0.0,73,0.00,,OVC017,0.00,VWS V14.01,2013-12-20 00:52:00,
2013-12-19 19:57:00,32.2,24.5,30.01,WNW,288,0.0,0.0,73,0.00,,OVC017,0.00,VWS V14.01,2013-12-20 00:57:00,
2013-12-19 20:02:00,32.2,24.8,30.01,SSE,163,0.0,0.0,74,0.00,,OVC017,0.00,VWS V14.01,2013-12-20 01:02:00,
2013-12-19 20:08:00,32.2,24.8,30.01,SSW,193,0.0,0.0,74,0.00,,OVC017,0.00,VWS V14.01,2013-12-20 01:08:00,
2013-12-19 20:13:00,32.2,24.8,30.01,SW,224,0.0,0.0,74,0.00,,OVC017,0.00,VWS V14.01,2013-12-20 01:13:00,
2013-12-19 20:18:00,32.2,24.8,30.01,NW,313,0.0,0.0,74,0.00,,OVC017,0.00,VWS V14.01,2013-12-20 01:18:00,
2013-12-19 20:23:00,32.0,25.0,30.01,SW,225,0.0,0.0,75,0.00,,OVC017,0.00,VWS V14.01,2013-12-20 01:23:00,
2013-12-19 20:28:00,32.0,25.0,30.01,SW,225,0.0,0.0,75,0.00,,OVC017,0.00,VWS V14.01,2013-12-20 01:28:00,
2013-12-19 20:33:00,32.0,25.0,30.01,SW,225,0.0,0.0,75,0.00,,OVC017,0.00,VWS V14.01,2013-12-20 01:33:00,
2013-12-19 20:38:00,32.0,25.0,30.01,South,169,0.0,0.0,75,0.00,,OVC017,0.00,VWS V14.01,2013-12-20 01:38:00,
2013-12-19 20:43:00,31.8,24.8,30.01,South,169,0.0,0.0,75,0.00,,OVC017,0.00,VWS V14.01,2013-12-20 01:43:00,
2013-12-19 20:48:00,31.8,24.8,30.01,South,169,0.0,0.0,75,0.00,,OVC017,0.00,VWS V14.01,2013-12-20 01:48:00,
2013-12-19 20:53:00,31.8,24.8,30.01,South,169,0.0,0.0,75,0.00,,OVC017,0.00,VWS V14.01,2013-12-20 01:53:00,
2013-12-19 20:58:00,31.8,24.8,30.01,SSE,150,0.0,0.0,75,0.00,,OVC017,0.00,VWS V14.01,2013-12-20 01:58:00,
2013-12-19 21:03:00,31.8,24.8,30.01,South,181,0.0,0.0,75,0.00,,OVC017,0.00,VWS V14.01,2013-12-20 02:03:00,
2013-12-19 21:08:00,32.0,25.0,30.01,South,170,0.0,0.0,75,0.00,,OVC017,0.00,VWS V14.01,2013-12-20 02:08:00,
2013-12-19 21:13:00,32.0,25.0,30.01,South,176,0.0,0.0,75,0.00,,OVC017,0.00,VWS V14.01,2013-12-20 02:13:00,
2013-12-19 21:18:00,32.0,25.3,30.01,South,172,0.0,0.0,76,0.00,,OVC017,0.00,VWS V14.01,2013-12-20 02:18:00,
2013-12-19 21:23:00,32.0,25.3,30.01,South,172,0.0,0.0,76,0.00,,OVC017,0.00,VWS V14.01,2013-12-20 02:23:00,
2013-12-19 21:28:00,32.0,25.3,30.01,South,172,0.0,0.0,76,0.00,,OVC017,0.00,VWS V14.01,2013-12-20 02:28:00,
2013-12-19 21:33:00,32.0,25.3,30.04,South,172,0.0,0.0,76,0.00,,OVC017,0.00,VWS V14.01,2013-12-20 02:33:00,
2013-12-19 21:38:00,32.0,25.3,30.04,South,172,0.0,0.0,76,0.00,,OVC017,0.00,VWS V14.01,2013-12-20 02:38:00,
2013-12-19 21:43:00,32.0,25.3,30.04,South,172,0.0,0.0,76,0.00,,OVC021,0.00,VWS V14.01,2013-12-20 02:43:00,
2013-12-19 21:48:00,32.0,25.3,30.04,South,172,0.0,0.0,76,0.00,,OVC021,0.00,VWS V14.01,2013-12-20 02:48:00,
2013-12-19 21:53:00,32.0,25.3,30.04,South,173,0.0,0.0,76,0.00,,OVC021,0.00,VWS V14.01,2013-12-20 02:53:00,
2013-12-19 21:58:00,32.0,25.3,30.04,South,173,0.0,0.0,76,0.00,,OVC021,0.00,VWS V14.01,2013-12-20 02:58:00,
2013-12-19 22:03:00,32.0,25.3,30.04,South,173,0.0,0.0,76,0.00,,OVC021,0.00,VWS V14.01,2013-12-20 03:03:00,
2013-12-19 22:08:00,32.0,25.3,30.01,South,169,0.0,0.0,76,0.00,,OVC021,0.00,VWS V14.01,2013-12-20 03:08:00,
2013-12-19 22:13:00,32.0,25.3,30.01,South,169,0.0,0.0,76,0.00,,OVC021,0.00,VWS V14.01,2013-12-20 03:13:00,
2013-12-19 22:18:00,32.0,25.3,30.01,South,169,0.0,0.0,76,0.00,,OVC021,0.00,VWS V14.01,2013-12-20 03:18:00,
2013-12-19 22:23:00,31.8,25.1,30.01,South,169,0.0,0.0,76,0.00,,OVC021,0.00,VWS V14.01,2013-12-20 03:23:00,
2013-12-19 22:28:00,31.8,25.1,30.01,South,169,0.0,0.0,76,0.00,,OVC021,0.00,VWS V14.01,2013-12-20 03:28:00,
2013-12-19 22:33:00,31.8,25.1,30.01,South,169,0.0,0.0,76,0.00,,OVC021,0.00,VWS V14.01,2013-12-20 03:33:00,
2013-12-19 22:38:00,31.8,25.1,30.01,South,169,0.0,0.0,76,0.00,,OVC021,0.00,VWS V14.01,2013-12-20 03:38:00,
2013-12-19 22:43:00,31.8,25.4,30.01,South,169,0.0,0.0,77,0.00,,OVC021,0.00,VWS V14.01,2013-12-20 03:43:00,
2013-12-19 22:48:00,31.8,25.4,30.01,South,169,0.0,0.0,77,0.00,,OVC021,0.00,VWS V14.01,2013-12-20 03:48:00,
2013-12-19 22:53:00,31.8,25.4,30.01,South,169,0.0,0.0,77,0.00,,OVC021,0.00,VWS V14.01,2013-12-20 03:53:00,
2013-12-19 22:58:00,31.5,25.1,30.01,South,169,0.0,0.0,77,0.00,,OVC021,0.00,VWS V14.01,2013-12-20 03:58:00,
2013-12-19 23:03:00,31.5,25.1,30.01,South,169,0.0,0.0,77,0.00,,OVC021,0.00,VWS V14.01,2013-12-20 04:03:00,
2013-12-19 23:09:00,31.1,24.8,30.01,South,169,0.0,0.0,77,0.00,,OVC021,0.00,VWS V14.01,2013-12-20 04:09:00,
2013-12-19 23:14:00,30.9,24.6,30.04,South,169,0.0,0.0,77,0.00,,OVC021,0.00,VWS V14.01,2013-12-20 04:14:00,
2013-12-19 23:19:00,30.7,24.4,30.04,South,169,0.0,0.0,77,0.00,,OVC021,0.00,VWS V14.01,2013-12-20 04:19:00,
2013-12-19 23:24:00,30.7,24.4,30.04,South,169,0.0,0.0,77,0.00,,OVC021,0.00,VWS V14.01,2013-12-20 04:24:00,
2013-12-19 23:29:00,30.6,24.2,30.04,South,169,0.0,0.0,77,0.00,,OVC021,0.00,VWS V14.01,2013-12-20 04:29:00,
2013-12-19 23:34:00,30.4,24.0,30.04,South,169,0.0,0.0,77,0.00,,OVC021,0.00,VWS V14.01,2013-12-20 04:34:00,
2013-12-19 23:39:00,30.4,24.0,30.04,South,169,0.0,0.0,77,0.00,,OVC021,0.00,VWS V14.01,2013-12-20 04:39:00,
2013-12-19 23:44:00,30.4,24.0,30.04,South,169,0.0,0.0,77,0.00,,OVC019,0.00,VWS V14.01,2013-12-20 04:44:00,
2013-12-19 23:49:00,30.4,24.0,30.04,South,169,0.0,0.0,77,0.00,,OVC019,0.00,VWS V14.01,2013-12-20 04:49:00,
2013-12-19 23:54:00,30.4,24.4,30.04,South,169,0.0,0.0,78,0.00,,OVC019,0.00,VWS V14.01,2013-12-20 04:54:00,
2013-12-19 23:59:00,30.2,24.2,30.04,South,169,0.0,0.0,78,0.00,,OVC019,0.00,VWS V14.01,2013-12-20 04:59:00,